sensor_id;sensor_type;location;lat;lon;timestamp;pressure;altitude;pressure_sealevel;temperature;humidity
19845;BME280;10083;51.038;7.012;2022-10-16T00:01:09;122309.22;;;13.93;76.13
19845;BME280;10083;51.038;7.012;2022-10-16T00:03:47;122234.00;;;13.92;76.13
19845;BME280;10083;51.038;7.012;2022-10-16T00:06:41;122323.44;;;13.78;76.13
19845;BME280;10083;51.038;7.012;2022-10-16T00:09:41;122156.25;;;13.77;76.12
19845;BME280;10083;51.038;7.012;2022-10-16T00:12:17;122014.25;;;13.70;76.12
19845;BME280;10083;51.038;7.012;2022-10-16T00:14:54;121835.50;;;13.84;76.13
19845;BME280;10083;51.038;7.012;2022-10-16T00:17:28;121674.22;;;13.85;76.14
19845;BME280;10083;51.038;7.012;2022-10-16T00:20:13;121591.84;;;13.87;76.13
19845;BME280;10083;51.038;7.012;2022-10-16T00:22:57;121666.41;;;13.89;76.13
19845;BME280;10083;51.038;7.012;2022-10-16T00:25:31;121646.72;;;13.92;76.15
19845;BME280;10083;51.038;7.012;2022-10-16T00:28:08;121559.41;;;13.96;76.14
19845;BME280;10083;51.038;7.012;2022-10-16T00:31:03;121501.25;;;14.00;76.14
19845;BME280;10083;51.038;7.012;2022-10-16T00:33:52;121383.19;;;14.01;76.14
19845;BME280;10083;51.038;7.012;2022-10-16T00:36:30;121390.59;;;13.95;76.14
19845;BME280;10083;51.038;7.012;2022-10-16T00:39:28;121388.91;;;13.87;76.13
19845;BME280;10083;51.038;7.012;2022-10-16T00:42:23;121117.00;;;13.82;76.13
19845;BME280;10083;51.038;7.012;2022-10-16T00:45:14;120979.13;;;13.64;76.11
19845;BME280;10083;51.038;7.012;2022-10-16T00:48:07;120822.28;;;13.64;76.11
19845;BME280;10083;51.038;7.012;2022-10-16T00:50:56;120832.41;;;13.49;76.10
19845;BME280;10083;51.038;7.012;2022-10-16T00:53:38;120719.38;;;13.57;76.11
19845;BME280;10083;51.038;7.012;2022-10-16T00:56:23;120535.91;;;13.37;76.09
19845;BME280;10083;51.038;7.012;2022-10-16T00:58:59;120212.94;;;13.26;76.09
19845;BME280;10083;51.038;7.012;2022-10-16T01:01:49;120156.44;;;13.36;76.08
19845;BME280;10083;51.038;7.012;2022-10-16T01:04:22;120034.50;;;13.48;76.09
19845;BME280;10083;51.038;7.012;2022-10-16T01:07:22;120295.69;;;13.54;76.10
19845;BME280;10083;51.038;7.012;2022-10-16T01:10:20;120236.69;;;13.62;76.11
19845;BME280;10083;51.038;7.012;2022-10-16T01:16:37;120221.19;;;13.74;76.13
19845;BME280;10083;51.038;7.012;2022-10-16T01:22:43;120266.56;;;13.82;76.13
19845;BME280;10083;51.038;7.012;2022-10-16T01:25:39;120010.25;;;13.87;76.14
19845;BME280;10083;51.038;7.012;2022-10-16T01:28:36;119756.81;;;13.90;76.14
19845;BME280;10083;51.038;7.012;2022-10-16T01:31:37;119808.44;;;13.88;76.13
19845;BME280;10083;51.038;7.012;2022-10-16T01:34:42;119788.25;;;13.90;76.14
19845;BME280;10083;51.038;7.012;2022-10-16T01:37:34;119804.47;;;13.90;76.14
19845;BME280;10083;51.038;7.012;2022-10-16T01:40:19;119510.69;;;13.90;76.14
19845;BME280;10083;51.038;7.012;2022-10-16T01:43:15;119524.66;;;13.85;76.13
19845;BME280;10083;51.038;7.012;2022-10-16T01:46:01;119307.91;;;13.84;76.13
19845;BME280;10083;51.038;7.012;2022-10-16T01:48:48;119226.56;;;13.86;76.13
19845;BME280;10083;51.038;7.012;2022-10-16T01:51:22;119084.91;;;13.86;76.14
19845;BME280;10083;51.038;7.012;2022-10-16T01:54:12;118902.19;;;13.90;76.15
19845;BME280;10083;51.038;7.012;2022-10-16T01:56:53;118653.13;;;13.93;76.15
19845;BME280;10083;51.038;7.012;2022-10-16T01:59:37;118950.88;;;13.90;76.15
19845;BME280;10083;51.038;7.012;2022-10-16T02:02:19;119132.84;;;13.93;76.14
19845;BME280;10083;51.038;7.012;2022-10-16T02:05:08;118869.59;;;13.97;76.15
19845;BME280;10083;51.038;7.012;2022-10-16T02:07:52;118662.50;;;14.01;76.15
19845;BME280;10083;51.038;7.012;2022-10-16T02:10:40;118550.25;;;13.99;76.15
19845;BME280;10083;51.038;7.012;2022-10-16T02:13:27;118647.31;;;14.02;76.15
19845;BME280;10083;51.038;7.012;2022-10-16T02:16:02;118631.50;;;14.03;76.16
19845;BME280;10083;51.038;7.012;2022-10-16T02:18:38;118529.75;;;14.04;76.16
19845;BME280;10083;51.038;7.012;2022-10-16T02:21:28;118618.88;;;14.00;76.15
19845;BME280;10083;51.038;7.012;2022-10-16T02:24:17;118437.69;;;14.00;76.15
19845;BME280;10083;51.038;7.012;2022-10-16T02:27:05;118380.72;;;14.07;76.15
19845;BME280;10083;51.038;7.012;2022-10-16T02:29:58;118258.91;;;14.02;76.14
19845;BME280;10083;51.038;7.012;2022-10-16T02:32:47;118310.19;;;13.98;76.14
19845;BME280;10083;51.038;7.012;2022-10-16T02:35:26;118091.47;;;13.96;76.16
19845;BME280;10083;51.038;7.012;2022-10-16T02:38:06;118161.47;;;13.98;76.14
19845;BME280;10083;51.038;7.012;2022-10-16T02:40:51;118360.84;;;13.95;76.14
19845;BME280;10083;51.038;7.012;2022-10-16T02:43:29;118095.53;;;13.98;76.14
19845;BME280;10083;51.038;7.012;2022-10-16T02:46:16;118201.53;;;13.93;76.14
19845;BME280;10083;51.038;7.012;2022-10-16T02:48:48;118169.09;;;13.93;76.14
19845;BME280;10083;51.038;7.012;2022-10-16T02:51:33;118180.69;;;13.96;76.14
19845;BME280;10083;51.038;7.012;2022-10-16T02:54:06;117990.47;;;13.99;76.14
19845;BME280;10083;51.038;7.012;2022-10-16T02:56:54;118048.53;;;13.97;76.15
19845;BME280;10083;51.038;7.012;2022-10-16T02:59:32;117930.91;;;13.95;76.14
19845;BME280;10083;51.038;7.012;2022-10-16T03:04:53;117897.13;;;13.97;76.15
19845;BME280;10083;51.038;7.012;2022-10-16T03:07:31;117890.41;;;13.99;76.15
19845;BME280;10083;51.038;7.012;2022-10-16T03:10:13;117949.91;;;13.99;76.15
19845;BME280;10083;51.038;7.012;2022-10-16T03:12:45;117885.66;;;13.98;76.15
19845;BME280;10083;51.038;7.012;2022-10-16T03:15:27;117742.28;;;13.94;76.15
19845;BME280;10083;51.038;7.012;2022-10-16T03:18:03;117782.13;;;13.91;76.14
19845;BME280;10083;51.038;7.012;2022-10-16T03:20:46;117661.44;;;13.88;76.14
19845;BME280;10083;51.038;7.012;2022-10-16T03:23:22;117694.75;;;13.80;76.14
19845;BME280;10083;51.038;7.012;2022-10-16T03:25:54;117647.38;;;13.74;76.13
19845;BME280;10083;51.038;7.012;2022-10-16T03:28:31;117635.16;;;13.72;76.13
19845;BME280;10083;51.038;7.012;2022-10-16T03:31:10;117677.09;;;13.74;76.12
19845;BME280;10083;51.038;7.012;2022-10-16T03:33:55;117731.00;;;13.66;76.12
19845;BME280;10083;51.038;7.012;2022-10-16T03:36:37;117577.66;;;13.65;76.12
19845;BME280;10083;51.038;7.012;2022-10-16T03:39:24;117531.38;;;13.68;76.13
19845;BME280;10083;51.038;7.012;2022-10-16T03:41:53;117437.41;;;13.63;76.11
19845;BME280;10083;51.038;7.012;2022-10-16T03:44:28;117514.75;;;13.62;76.12
19845;BME280;10083;51.038;7.012;2022-10-16T03:46:59;117687.03;;;13.63;76.12
19845;BME280;10083;51.038;7.012;2022-10-16T03:49:36;117875.94;;;13.66;76.13
19845;BME280;10083;51.038;7.012;2022-10-16T03:52:13;117846.84;;;13.65;76.12
19845;BME280;10083;51.038;7.012;2022-10-16T03:54:53;117922.78;;;13.62;76.12
19845;BME280;10083;51.038;7.012;2022-10-16T03:57:27;117791.13;;;13.65;76.12
19845;BME280;10083;51.038;7.012;2022-10-16T04:00:01;117798.66;;;13.70;76.13
19845;BME280;10083;51.038;7.012;2022-10-16T04:02:39;117740.56;;;13.72;76.13
19845;BME280;10083;51.038;7.012;2022-10-16T04:05:14;117607.84;;;13.75;76.13
19845;BME280;10083;51.038;7.012;2022-10-16T04:07:52;117729.47;;;13.75;76.13
19845;BME280;10083;51.038;7.012;2022-10-16T04:10:25;117600.78;;;13.79;76.13
19845;BME280;10083;51.038;7.012;2022-10-16T04:12:58;117613.00;;;13.81;76.14
19845;BME280;10083;51.038;7.012;2022-10-16T04:15:38;117610.66;;;13.83;76.14
19845;BME280;10083;51.038;7.012;2022-10-16T04:18:09;117638.78;;;13.87;76.13
19845;BME280;10083;51.038;7.012;2022-10-16T04:20:49;117715.19;;;13.90;76.14
19845;BME280;10083;51.038;7.012;2022-10-16T04:23:33;117522.22;;;13.90;76.14
19845;BME280;10083;51.038;7.012;2022-10-16T04:26:24;117479.72;;;13.97;76.15
19845;BME280;10083;51.038;7.012;2022-10-16T04:29:01;117576.94;;;13.89;76.13
19845;BME280;10083;51.038;7.012;2022-10-16T04:31:38;117624.56;;;13.88;76.14
19845;BME280;10083;51.038;7.012;2022-10-16T04:34:12;117479.94;;;13.86;76.15
19845;BME280;10083;51.038;7.012;2022-10-16T04:36:46;117173.16;;;13.88;76.13
19845;BME280;10083;51.038;7.012;2022-10-16T04:39:19;117263.34;;;13.85;76.15
19845;BME280;10083;51.038;7.012;2022-10-16T04:41:53;117401.84;;;13.84;76.13
19845;BME280;10083;51.038;7.012;2022-10-16T04:44:26;117343.06;;;13.83;76.13
19845;BME280;10083;51.038;7.012;2022-10-16T04:46:58;117255.84;;;13.80;76.13
19845;BME280;10083;51.038;7.012;2022-10-16T04:49:27;116830.88;;;13.77;76.13
19845;BME280;10083;51.038;7.012;2022-10-16T04:52:02;116925.81;;;13.74;76.13
19845;BME280;10083;51.038;7.012;2022-10-16T04:54:30;117100.41;;;13.70;76.12
19845;BME280;10083;51.038;7.012;2022-10-16T04:57:01;117153.44;;;13.69;76.12
19845;BME280;10083;51.038;7.012;2022-10-16T04:59:33;117158.22;;;13.74;76.13
19845;BME280;10083;51.038;7.012;2022-10-16T05:02:06;117118.34;;;13.73;76.13
19845;BME280;10083;51.038;7.012;2022-10-16T05:04:42;117218.63;;;13.71;76.12
19845;BME280;10083;51.038;7.012;2022-10-16T05:07:20;117153.50;;;13.77;76.13
19845;BME280;10083;51.038;7.012;2022-10-16T05:10:09;117156.13;;;13.69;76.12
19845;BME280;10083;51.038;7.012;2022-10-16T05:12:45;116696.78;;;13.65;76.12
19845;BME280;10083;51.038;7.012;2022-10-16T05:15:17;116777.50;;;13.59;76.10
19845;BME280;10083;51.038;7.012;2022-10-16T05:17:54;116795.38;;;13.55;76.09
19845;BME280;10083;51.038;7.012;2022-10-16T05:20:28;116779.53;;;13.56;76.11
19845;BME280;10083;51.038;7.012;2022-10-16T05:23:00;117052.66;;;13.54;76.10
19845;BME280;10083;51.038;7.012;2022-10-16T05:25:39;117007.47;;;13.57;76.11
19845;BME280;10083;51.038;7.012;2022-10-16T05:28:13;116884.53;;;13.55;76.11
19845;BME280;10083;51.038;7.012;2022-10-16T05:30:49;116961.53;;;13.57;76.11
19845;BME280;10083;51.038;7.012;2022-10-16T05:33:29;117110.78;;;13.56;76.12
19845;BME280;10083;51.038;7.012;2022-10-16T05:36:11;116903.81;;;13.65;76.12
19845;BME280;10083;51.038;7.012;2022-10-16T05:38:50;116501.25;;;13.69;76.12
19845;BME280;10083;51.038;7.012;2022-10-16T05:41:26;116451.94;;;13.70;76.11
19845;BME280;10083;51.038;7.012;2022-10-16T05:44:08;116589.38;;;13.68;76.12
19845;BME280;10083;51.038;7.012;2022-10-16T05:46:52;116438.09;;;13.68;76.12
19845;BME280;10083;51.038;7.012;2022-10-16T05:49:29;116331.72;;;13.68;76.12
19845;BME280;10083;51.038;7.012;2022-10-16T05:52:06;116332.75;;;13.64;76.12
19845;BME280;10083;51.038;7.012;2022-10-16T05:54:38;116115.25;;;13.66;76.12
19845;BME280;10083;51.038;7.012;2022-10-16T05:57:19;116258.81;;;13.64;76.11
19845;BME280;10083;51.038;7.012;2022-10-16T05:59:52;116234.13;;;13.66;76.13
19845;BME280;10083;51.038;7.012;2022-10-16T06:02:19;116165.66;;;13.62;76.11
19845;BME280;10083;51.038;7.012;2022-10-16T06:04:51;116235.56;;;13.56;76.12
19845;BME280;10083;51.038;7.012;2022-10-16T06:07:33;116057.97;;;13.55;76.11
19845;BME280;10083;51.038;7.012;2022-10-16T06:10:14;116125.91;;;13.44;76.10
19845;BME280;10083;51.038;7.012;2022-10-16T06:12:50;115823.47;;;13.44;76.10
19845;BME280;10083;51.038;7.012;2022-10-16T06:15:24;115951.84;;;13.38;76.10
19845;BME280;10083;51.038;7.012;2022-10-16T06:18:05;115973.38;;;13.42;76.11
19845;BME280;10083;51.038;7.012;2022-10-16T06:20:44;116021.31;;;13.43;76.10
19845;BME280;10083;51.038;7.012;2022-10-16T06:23:19;115910.22;;;13.46;76.10
19845;BME280;10083;51.038;7.012;2022-10-16T06:25:51;115737.06;;;13.48;76.11
19845;BME280;10083;51.038;7.012;2022-10-16T06:28:39;115793.38;;;13.51;76.11
19845;BME280;10083;51.038;7.012;2022-10-16T06:31:18;115910.13;;;13.54;76.10
19845;BME280;10083;51.038;7.012;2022-10-16T06:34:02;115893.13;;;13.63;76.13
19845;BME280;10083;51.038;7.012;2022-10-16T06:36:57;115794.53;;;13.65;76.12
19845;BME280;10083;51.038;7.012;2022-10-16T06:40:07;115924.44;;;13.71;76.12
19845;BME280;10083;51.038;7.012;2022-10-16T06:42:42;115867.22;;;13.81;76.14
19845;BME280;10083;51.038;7.012;2022-10-16T06:45:19;115740.84;;;13.84;76.13
19845;BME280;10083;51.038;7.012;2022-10-16T06:47:56;115683.22;;;13.97;76.16
19845;BME280;10083;51.038;7.012;2022-10-16T06:50:38;115651.63;;;14.06;76.15
19845;BME280;10083;51.038;7.012;2022-10-16T06:53:09;115462.66;;;14.12;76.16
19845;BME280;10083;51.038;7.012;2022-10-16T06:55:45;115462.81;;;14.21;76.17
19845;BME280;10083;51.038;7.012;2022-10-16T06:58:26;115630.00;;;14.24;76.16
19845;BME280;10083;51.038;7.012;2022-10-16T07:00:59;115703.44;;;14.39;76.19
19845;BME280;10083;51.038;7.012;2022-10-16T07:03:30;115556.00;;;14.41;76.19
19845;BME280;10083;51.038;7.012;2022-10-16T07:06:07;115420.41;;;14.43;76.18
19845;BME280;10083;51.038;7.012;2022-10-16T07:08:39;115434.63;;;14.56;76.20
19845;BME280;10083;51.038;7.012;2022-10-16T07:11:13;115437.81;;;14.63;76.21
19845;BME280;10083;51.038;7.012;2022-10-16T07:13:48;115458.66;;;14.68;76.21
19845;BME280;10083;51.038;7.012;2022-10-16T07:16:33;115427.78;;;14.85;76.24
19845;BME280;10083;51.038;7.012;2022-10-16T07:19:03;115192.78;;;14.83;76.23
19845;BME280;10083;51.038;7.012;2022-10-16T07:21:41;115256.59;;;14.86;76.24
19845;BME280;10083;51.038;7.012;2022-10-16T07:24:16;115373.44;;;14.93;76.24
19845;BME280;10083;51.038;7.012;2022-10-16T07:26:50;115174.75;;;14.97;76.24
19845;BME280;10083;51.038;7.012;2022-10-16T07:29:25;115174.09;;;15.08;76.24
19845;BME280;10083;51.038;7.012;2022-10-16T07:32:01;115209.72;;;15.15;76.25
19845;BME280;10083;51.038;7.012;2022-10-16T07:34:35;115181.09;;;15.11;76.26
19845;BME280;10083;51.038;7.012;2022-10-16T07:37:12;115258.59;;;15.11;76.25
19845;BME280;10083;51.038;7.012;2022-10-16T07:39:44;115249.47;;;15.10;76.24
19845;BME280;10083;51.038;7.012;2022-10-16T07:42:23;115375.22;;;15.03;76.24
19845;BME280;10083;51.038;7.012;2022-10-16T07:45:01;115433.78;;;15.02;76.24
19845;BME280;10083;51.038;7.012;2022-10-16T07:47:29;115310.81;;;14.96;76.24
19845;BME280;10083;51.038;7.012;2022-10-16T07:50:08;115406.56;;;14.83;76.23
19845;BME280;10083;51.038;7.012;2022-10-16T07:52:43;115435.31;;;14.82;76.23
19845;BME280;10083;51.038;7.012;2022-10-16T07:55:19;115512.19;;;14.79;76.22
19845;BME280;10083;51.038;7.012;2022-10-16T07:58:04;115525.31;;;14.81;76.22
19845;BME280;10083;51.038;7.012;2022-10-16T08:00:39;115802.34;;;14.82;76.22
19845;BME280;10083;51.038;7.012;2022-10-16T08:03:16;115500.53;;;14.84;76.23
19845;BME280;10083;51.038;7.012;2022-10-16T08:05:52;115492.31;;;15.02;76.24
19845;BME280;10083;51.038;7.012;2022-10-16T08:08:23;115429.13;;;15.11;76.24
19845;BME280;10083;51.038;7.012;2022-10-16T08:10:52;115555.00;;;15.13;76.26
19845;BME280;10083;51.038;7.012;2022-10-16T08:13:23;115623.28;;;15.29;76.28
19845;BME280;10083;51.038;7.012;2022-10-16T08:15:54;115548.72;;;15.45;76.28
19845;BME280;10083;51.038;7.012;2022-10-16T08:18:24;115589.34;;;15.59;76.29
19845;BME280;10083;51.038;7.012;2022-10-16T08:21:04;115694.72;;;15.71;76.30
19845;BME280;10083;51.038;7.012;2022-10-16T08:23:33;115637.97;;;15.90;76.33
19845;BME280;10083;51.038;7.012;2022-10-16T08:26:05;115706.50;;;16.12;76.34
19845;BME280;10083;51.038;7.012;2022-10-16T08:28:33;115684.97;;;16.18;76.35
19845;BME280;10083;51.038;7.012;2022-10-16T08:31:13;115784.50;;;16.23;76.35
19845;BME280;10083;51.038;7.012;2022-10-16T08:33:44;115869.41;;;16.18;76.34
19845;BME280;10083;51.038;7.012;2022-10-16T08:36:20;116021.81;;;16.25;76.35
19845;BME280;10083;51.038;7.012;2022-10-16T08:38:49;116124.34;;;16.36;76.36
19845;BME280;10083;51.038;7.012;2022-10-16T08:41:51;116328.34;;;16.43;76.36
19845;BME280;10083;51.038;7.012;2022-10-16T08:47:19;116507.88;;;16.80;76.40
19845;BME280;10083;51.038;7.012;2022-10-16T08:49:56;116668.41;;;16.81;76.40
19845;BME280;10083;51.038;7.012;2022-10-16T08:52:34;116715.03;;;16.96;76.42
19845;BME280;10083;51.038;7.012;2022-10-16T08:55:24;116918.31;;;17.03;76.43
19845;BME280;10083;51.038;7.012;2022-10-16T08:57:58;116957.25;;;17.11;76.42
19845;BME280;10083;51.038;7.012;2022-10-16T09:00:27;116977.25;;;17.16;76.43
19845;BME280;10083;51.038;7.012;2022-10-16T09:03:10;117118.09;;;17.31;76.43
19845;BME280;10083;51.038;7.012;2022-10-16T09:08:46;117724.56;;;17.36;76.44
19845;BME280;10083;51.038;7.012;2022-10-16T09:11:25;117712.31;;;17.50;76.46
19845;BME280;10083;51.038;7.012;2022-10-16T09:14:01;117882.63;;;17.58;76.47
19845;BME280;10083;51.038;7.012;2022-10-16T09:16:36;118100.59;;;17.63;76.47
19845;BME280;10083;51.038;7.012;2022-10-16T09:19:17;118259.81;;;17.78;76.49
19845;BME280;10083;51.038;7.012;2022-10-16T09:21:47;118320.44;;;17.93;76.50
19845;BME280;10083;51.038;7.012;2022-10-16T09:24:23;118522.88;;;17.93;76.50
19845;BME280;10083;51.038;7.012;2022-10-16T09:26:51;118715.31;;;17.82;76.48
19845;BME280;10083;51.038;7.012;2022-10-16T09:29:20;118998.84;;;17.73;76.47
19845;BME280;10083;51.038;7.012;2022-10-16T09:31:54;119241.19;;;17.96;76.50
19845;BME280;10083;51.038;7.012;2022-10-16T09:34:30;119388.56;;;18.27;76.52
19845;BME280;10083;51.038;7.012;2022-10-16T09:37:04;119717.41;;;18.38;76.53
19845;BME280;10083;51.038;7.012;2022-10-16T09:39:48;120111.16;;;18.40;76.53
19845;BME280;10083;51.038;7.012;2022-10-16T09:42:17;120302.09;;;18.44;76.54
19845;BME280;10083;51.038;7.012;2022-10-16T09:44:48;120559.72;;;18.64;76.55
19845;BME280;10083;51.038;7.012;2022-10-16T09:47:21;120894.88;;;18.60;76.56
19845;BME280;10083;51.038;7.012;2022-10-16T09:49:54;121103.88;;;18.76;76.56
19845;BME280;10083;51.038;7.012;2022-10-16T09:52:24;121245.44;;;18.85;76.57
19845;BME280;10083;51.038;7.012;2022-10-16T09:54:54;121576.16;;;18.91;76.58
19845;BME280;10083;51.038;7.012;2022-10-16T09:57:23;121887.03;;;19.07;76.59
19845;BME280;10083;51.038;7.012;2022-10-16T09:59:51;122307.63;;;19.33;76.62
19845;BME280;10083;51.038;7.012;2022-10-16T10:02:22;122854.03;;;19.55;76.63
19845;BME280;10083;51.038;7.012;2022-10-16T10:04:53;123534.09;;;19.37;76.61
19845;BME280;10083;51.038;7.012;2022-10-16T10:07:25;124034.44;;;19.53;76.64
19845;BME280;10083;51.038;7.012;2022-10-16T10:09:56;124693.31;;;19.59;76.64
19845;BME280;10083;51.038;7.012;2022-10-16T10:12:25;125072.22;;;20.11;76.67
19845;BME280;10083;51.038;7.012;2022-10-16T10:14:54;125685.22;;;20.28;76.69
19845;BME280;10083;51.038;7.012;2022-10-16T10:17:24;126219.34;;;20.42;76.70
19845;BME280;10083;51.038;7.012;2022-10-16T10:19:54;126874.19;;;20.69;76.71
19845;BME280;10083;51.038;7.012;2022-10-16T10:22:25;127844.34;;;20.99;76.74
19845;BME280;10083;51.038;7.012;2022-10-16T10:25:30;128678.78;;;22.00;76.84
19845;BME280;10083;51.038;7.012;2022-10-16T10:28:21;130707.19;;;21.05;76.76
19845;BME280;10083;51.038;7.012;2022-10-16T10:30:59;131399.25;;;20.98;76.74
19845;BME280;10083;51.038;7.012;2022-10-16T10:33:34;132549.53;;;20.40;76.70
19845;BME280;10083;51.038;7.012;2022-10-16T10:36:19;133605.13;;;20.03;76.67
19845;BME280;10083;51.038;7.012;2022-10-16T10:38:51;135703.38;;;20.01;76.65
19845;BME280;10083;51.038;7.012;2022-10-16T10:44:37;136469.34;;;19.60;76.62
19845;BME280;10083;51.038;7.012;2022-10-16T10:47:16;136821.28;;;20.14;76.67
19845;BME280;10083;51.038;7.012;2022-10-16T10:49:58;137536.53;;;20.32;76.68
19845;BME280;10083;51.038;7.012;2022-10-16T10:52:38;139323.13;;;21.01;76.75
19845;BME280;10083;51.038;7.012;2022-10-16T10:55:19;140032.31;;;21.38;76.76
19845;BME280;10083;51.038;7.012;2022-10-16T10:58:10;141196.25;;;20.86;76.72
19845;BME280;10083;51.038;7.012;2022-10-16T11:00:51;141779.31;;;21.22;76.75
19845;BME280;10083;51.038;7.012;2022-10-16T11:03:31;141994.06;;;22.88;76.89
19845;BME280;10083;51.038;7.012;2022-10-16T11:06:04;142854.50;;;23.53;76.94
19845;BME280;10083;51.038;7.012;2022-10-16T11:08:40;143515.03;;;24.53;77.03
19845;BME280;10083;51.038;7.012;2022-10-16T11:11:17;144880.44;;;25.09;77.06
19845;BME280;10083;51.038;7.012;2022-10-16T11:13:56;146927.81;;;23.96;76.98
19845;BME280;10083;51.038;7.012;2022-10-16T11:16:28;147989.13;;;23.72;76.94
19845;BME280;10083;51.038;7.012;2022-10-16T11:19:01;149227.44;;;23.26;76.91
19845;BME280;10083;51.038;7.012;2022-10-16T11:21:35;150018.84;;;24.02;76.98
19845;BME280;10083;51.038;7.012;2022-10-16T11:24:15;151246.75;;;23.27;76.91
19845;BME280;10083;51.038;7.012;2022-10-16T11:26:47;152068.44;;;23.02;76.91
19845;BME280;10083;51.038;7.012;2022-10-16T11:29:22;152818.41;;;22.43;76.89
19845;BME280;10083;51.038;7.012;2022-10-16T11:31:53;153292.25;;;23.16;76.98
19845;BME280;10083;51.038;7.012;2022-10-16T11:34:25;153831.69;;;24.92;77.15
19845;BME280;10083;51.038;7.012;2022-10-16T11:36:58;154660.59;;;25.85;77.29
19845;BME280;10083;51.038;7.012;2022-10-16T11:39:29;155346.69;;;25.46;77.48
19845;BME280;10083;51.038;7.012;2022-10-16T11:42:01;155408.47;;;25.64;77.98
19845;BME280;10083;51.038;7.012;2022-10-16T11:44:41;155785.91;;;27.08;78.50
19845;BME280;10083;51.038;7.012;2022-10-16T11:47:23;156110.56;;;28.31;79.27
19845;BME280;10083;51.038;7.012;2022-10-16T11:49:57;155981.47;;;27.82;82.00
19845;BME280;10083;51.038;7.012;2022-10-16T11:52:29;154681.47;;;29.70;83.55
19845;BME280;10083;51.038;7.012;2022-10-16T11:55:02;148713.34;;;28.76;89.73
19845;BME280;10083;51.038;7.012;2022-10-16T11:57:34;139512.22;;;27.78;95.31
19845;BME280;10083;51.038;7.012;2022-10-16T12:00:10;132272.22;;;27.16;100.00
19845;BME280;10083;51.038;7.012;2022-10-16T12:02:50;127535.66;;;27.61;100.00
19845;BME280;10083;51.038;7.012;2022-10-16T12:05:29;121227.13;;;25.74;100.00
19845;BME280;10083;51.038;7.012;2022-10-16T12:08:06;119244.22;;;26.47;100.00
19845;BME280;10083;51.038;7.012;2022-10-16T12:10:39;114765.69;;;25.60;100.00
19845;BME280;10083;51.038;7.012;2022-10-16T12:13:28;112468.13;;;26.21;100.00
19845;BME280;10083;51.038;7.012;2022-10-16T12:16:07;109564.38;;;25.02;100.00
19845;BME280;10083;51.038;7.012;2022-10-16T12:18:47;109433.44;;;26.05;100.00
19845;BME280;10083;51.038;7.012;2022-10-16T12:21:17;109229.38;;;27.86;100.00
19845;BME280;10083;51.038;7.012;2022-10-16T12:23:49;107655.84;;;26.68;100.00
19845;BME280;10083;51.038;7.012;2022-10-16T12:26:28;106914.78;;;25.25;100.00
19845;BME280;10083;51.038;7.012;2022-10-16T12:29:14;106597.81;;;24.17;100.00
19845;BME280;10083;51.038;7.012;2022-10-16T12:31:49;106556.25;;;23.28;100.00
19845;BME280;10083;51.038;7.012;2022-10-16T12:34:22;106581.16;;;22.44;100.00
19845;BME280;10083;51.038;7.012;2022-10-16T12:36:53;106915.03;;;22.58;100.00
19845;BME280;10083;51.038;7.012;2022-10-16T12:39:22;107005.69;;;22.73;100.00
19845;BME280;10083;51.038;7.012;2022-10-16T12:42:01;107566.03;;;25.41;100.00
19845;BME280;10083;51.038;7.012;2022-10-16T12:44:32;106690.25;;;24.27;100.00
19845;BME280;10083;51.038;7.012;2022-10-16T12:47:02;106561.84;;;25.78;100.00
19845;BME280;10083;51.038;7.012;2022-10-16T12:49:34;106037.59;;;26.42;100.00
19845;BME280;10083;51.038;7.012;2022-10-16T12:52:02;105428.47;;;27.17;100.00
19845;BME280;10083;51.038;7.012;2022-10-16T12:54:31;104906.75;;;27.64;100.00
19845;BME280;10083;51.038;7.012;2022-10-16T12:57:09;104428.25;;;27.89;100.00
19845;BME280;10083;51.038;7.012;2022-10-16T12:59:46;103991.69;;;26.86;100.00
19845;BME280;10083;51.038;7.012;2022-10-16T13:02:45;104085.47;;;29.11;100.00
19845;BME280;10083;51.038;7.012;2022-10-16T13:05:35;105430.06;;;27.76;100.00
19845;BME280;10083;51.038;7.012;2022-10-16T13:08:19;106492.41;;;27.31;100.00
19845;BME280;10083;51.038;7.012;2022-10-16T13:10:59;107922.13;;;25.35;100.00
19845;BME280;10083;51.038;7.012;2022-10-16T13:13:43;108925.84;;;25.13;100.00
19845;BME280;10083;51.038;7.012;2022-10-16T13:16:21;112199.69;;;26.76;100.00
19845;BME280;10083;51.038;7.012;2022-10-16T13:19:00;117348.22;;;28.21;98.49
19845;BME280;10083;51.038;7.012;2022-10-16T13:21:41;119962.66;;;25.92;100.00
19845;BME280;10083;51.038;7.012;2022-10-16T13:24:22;122723.19;;;25.29;100.00
19845;BME280;10083;51.038;7.012;2022-10-16T13:26:58;126308.19;;;25.04;96.96
19845;BME280;10083;51.038;7.012;2022-10-16T13:29:30;129391.94;;;24.57;96.25
19845;BME280;10083;51.038;7.012;2022-10-16T13:32:01;132559.44;;;23.88;95.80
19845;BME280;10083;51.038;7.012;2022-10-16T13:34:45;136123.59;;;24.38;93.14
19845;BME280;10083;51.038;7.012;2022-10-16T13:37:18;139661.94;;;24.86;91.45
19845;BME280;10083;51.038;7.012;2022-10-16T13:39:45;145475.72;;;26.48;88.54
19845;BME280;10083;51.038;7.012;2022-10-16T13:42:23;148959.09;;;28.29;86.25
19845;BME280;10083;51.038;7.012;2022-10-16T13:44:52;150544.63;;;28.92;86.83
19845;BME280;10083;51.038;7.012;2022-10-16T13:47:24;151682.72;;;29.17;87.41
19845;BME280;10083;51.038;7.012;2022-10-16T13:50:04;152501.94;;;29.58;87.14
19845;BME280;10083;51.038;7.012;2022-10-16T13:52:32;152273.31;;;28.69;89.60
19845;BME280;10083;51.038;7.012;2022-10-16T13:54:59;153178.63;;;29.43;88.91
19845;BME280;10083;51.038;7.012;2022-10-16T13:57:26;151403.38;;;26.69;93.08
19845;BME280;10083;51.038;7.012;2022-10-16T13:59:59;151636.44;;;26.21;91.12
19845;BME280;10083;51.038;7.012;2022-10-16T14:02:28;152307.91;;;26.05;90.64